Time;durP1;ratioP1;P1;durP2;ratioP2;P2;SDS_P1;SDS_P2;PMS_P1;PMS_P2;Temp;Humidity;BMP_temperature;BMP_pressure;BME280_temperature;BME280_humidity;BME280_pressure;Samples;Min_cycle;Max_cycle;Signal;HPM_P1;HPM_P2
2023/04/28 00:00:55;;;;;;;2.30;1.10;;;10.50;59.30;;;;;;4901798;29;20052;-88
2023/04/28 00:03:22;;;;;;;1.63;0.85;;;10.50;59.20;;;;;;4941312;29;20083;-87
2023/04/28 00:05:54;;;;;;;2.45;0.77;;;10.50;59.20;;;;;;4928775;29;20048;-88
2023/04/28 00:08:25;;;;;;;1.98;1.10;;;10.50;59.20;;;;;;4935811;29;20063;-88
2023/04/28 00:10:55;;;;;;;2.03;0.93;;;10.50;59.30;;;;;;4920073;29;20056;-88
2023/04/28 00:13:34;;;;;;;1.65;0.88;;;10.50;59.30;;;;;;4964735;28;20044;-88
2023/04/28 00:16:05;;;;;;;3.17;0.93;;;10.40;59.30;;;;;;4935524;29;20043;-89
2023/04/28 00:18:35;;;;;;;2.45;0.90;;;10.40;59.50;;;;;;4942026;29;20043;-88
2023/04/28 00:21:03;;;;;;;1.55;0.80;;;10.40;59.50;;;;;;4935260;29;20051;-88
2023/04/28 00:23:34;;;;;;;2.08;0.95;;;10.40;59.50;;;;;;4918844;29;20521;-88
2023/04/28 00:26:03;;;;;;;1.30;0.68;;;10.40;59.60;;;;;;4900866;29;20051;-85
2023/04/28 00:28:31;;;;;;;1.33;0.57;;;10.40;59.70;;;;;;4920364;29;20044;-85
2023/04/28 00:31:01;;;;;;;2.03;0.70;;;10.30;59.70;;;;;;4925778;29;20441;-84
2023/04/28 00:33:31;;;;;;;1.65;0.70;;;10.30;59.70;;;;;;4932863;29;20563;-86
2023/04/28 00:36:02;;;;;;;1.50;0.70;;;10.20;59.70;;;;;;4940245;29;20051;-85
2023/04/28 00:38:33;;;;;;;1.90;0.60;;;10.20;59.80;;;;;;4936860;29;20059;-85
2023/04/28 00:41:00;;;;;;;3.17;0.50;;;10.20;59.90;;;;;;4919335;29;20044;-85
2023/04/28 00:43:31;;;;;;;1.70;0.63;;;10.20;59.90;;;;;;4901289;29;20438;-85
2023/04/28 00:46:00;;;;;;;2.15;0.80;;;10.20;59.90;;;;;;4938045;29;20083;-85
2023/04/28 00:48:28;;;;;;;1.10;0.70;;;10.20;59.90;;;;;;4925480;29;20051;-85
2023/04/28 00:50:55;;;;;;;1.42;0.68;;;10.20;60.00;;;;;;4939015;29;20047;-85
2023/04/28 00:53:24;;;;;;;1.70;0.73;;;10.20;60.00;;;;;;4927000;29;20072;-85
2023/04/28 00:55:53;;;;;;;2.03;0.80;;;10.20;60.00;;;;;;4951343;29;20051;-85
2023/04/28 00:58:20;;;;;;;1.58;0.80;;;10.20;60.00;;;;;;4919704;29;20063;-84
2023/04/28 01:00:48;;;;;;;3.42;0.80;;;10.10;59.90;;;;;;4923564;29;20373;-85
2023/04/28 01:03:18;;;;;;;1.42;0.80;;;10.10;60.00;;;;;;4931670;29;20522;-84
2023/04/28 01:05:49;;;;;;;1.30;0.57;;;10.20;60.20;;;;;;4926271;29;20048;-85
2023/04/28 01:08:23;;;;;;;1.67;0.75;;;10.20;60.20;;;;;;4949919;28;20099;-85
2023/04/28 01:10:53;;;;;;;2.05;0.70;;;10.20;60.20;;;;;;4934807;29;20052;-85
2023/04/28 01:13:40;;;;;;;2.78;0.75;;;10.20;60.20;;;;;;4935846;29;20059;-85
2023/04/28 01:16:12;;;;;;;1.40;0.70;;;10.20;60.90;;;;;;4922985;29;20069;-85
2023/04/28 01:18:49;;;;;;;1.27;0.57;;;10.20;60.30;;;;;;4938219;29;20055;-85
2023/04/28 01:21:31;;;;;;;2.03;0.70;;;10.20;60.30;;;;;;4922606;29;20052;-86
2023/04/28 01:24:05;;;;;;;1.45;0.70;;;10.20;60.50;;;;;;4928632;29;20055;-85
2023/04/28 01:26:33;;;;;;;1.65;0.82;;;10.10;60.70;;;;;;4923115;29;20050;-86
2023/04/28 01:29:00;;;;;;;1.60;0.60;;;10.10;60.90;;;;;;4937958;29;20373;-85
2023/04/28 01:31:31;;;;;;;1.50;0.50;;;10.10;61.10;;;;;;4966100;28;20047;-84
2023/04/28 01:34:04;;;;;;;1.52;0.60;;;10.00;61.40;;;;;;4931113;29;20484;-85
2023/04/28 01:36:43;;;;;;;2.05;0.60;;;10.00;61.70;;;;;;4938776;29;20493;-85
2023/04/28 01:39:13;;;;;;;1.58;0.70;;;10.00;62.00;;;;;;4918692;29;20496;-85
2023/04/28 01:41:41;;;;;;;2.28;0.60;;;9.90;62.20;;;;;;4935246;29;20044;-85
2023/04/28 01:44:09;;;;;;;1.55;0.80;;;9.80;62.40;;;;;;4927108;29;20491;-85
2023/04/28 01:46:36;;;;;;;2.28;0.70;;;9.90;62.70;;;;;;4943176;29;20543;-85
2023/04/28 01:49:03;;;;;;;2.40;0.68;;;9.80;62.80;;;;;;4938830;29;20084;-85
2023/04/28 01:51:34;;;;;;;2.00;0.80;;;9.80;63.00;;;;;;4946190;29;20051;-85
2023/04/28 01:54:03;;;;;;;1.83;0.75;;;9.80;63.30;;;;;;4938152;29;20051;-85
2023/04/28 01:56:41;;;;;;;2.35;0.65;;;9.80;63.40;;;;;;4923567;29;20527;-84
2023/04/28 01:59:20;;;;;;;2.17;0.65;;;9.70;63.60;;;;;;4923091;29;20051;-85
2023/04/28 02:01:49;;;;;;;1.15;0.60;;;9.70;63.60;;;;;;4932509;29;20080;-85
2023/04/28 02:04:20;;;;;;;1.33;0.50;;;9.70;63.70;;;;;;4941663;29;20044;-85
2023/04/28 02:06:47;;;;;;;1.30;0.60;;;9.70;63.90;;;;;;4948620;29;20043;-85
2023/04/28 02:09:14;;;;;;;1.20;0.50;;;9.70;63.90;;;;;;4947287;29;20055;-84
2023/04/28 02:11:43;;;;;;;2.13;0.70;;;9.70;64.00;;;;;;4935813;29;20043;-86
2023/04/28 02:14:23;;;;;;;1.23;0.60;;;9.70;64.10;;;;;;4926314;29;20062;-85
2023/04/28 02:16:53;;;;;;;2.20;0.70;;;9.70;64.20;;;;;;4923012;29;20044;-85
2023/04/28 02:19:23;;;;;;;1.30;0.60;;;9.70;64.30;;;;;;4922049;29;20058;-85
2023/04/28 02:21:55;;;;;;;2.30;1.02;;;9.70;64.40;;;;;;4952312;29;20501;-85
2023/04/28 02:24:28;;;;;;;1.80;0.70;;;9.60;64.40;;;;;;4895983;29;20516;-85
2023/04/28 02:26:59;;;;;;;2.08;0.80;;;9.60;64.40;;;;;;4951229;29;20032;-85
2023/04/28 02:29:27;;;;;;;1.67;0.75;;;9.70;64.50;;;;;;4923807;29;20051;-85
2023/04/28 02:32:00;;;;;;;1.60;0.60;;;9.60;64.50;;;;;;4921499;29;20044;-85
2023/04/28 02:34:29;;;;;;;1.52;0.85;;;9.60;64.60;;;;;;4906057;29;20138;-85
2023/04/28 02:36:56;;;;;;;1.75;0.80;;;9.60;64.70;;;;;;4936665;29;20496;-85
2023/04/28 02:39:30;;;;;;;1.73;0.60;;;9.60;64.80;;;;;;4951906;29;20071;-85
2023/04/28 02:41:59;;;;;;;2.38;0.80;;;9.60;64.80;;;;;;4934926;29;20044;-85
2023/04/28 02:44:26;;;;;;;2.33;0.73;;;9.60;64.80;;;;;;4935861;29;20040;-85
2023/04/28 02:46:54;;;;;;;2.13;0.65;;;9.60;64.90;;;;;;4908159;29;20044;-85
2023/04/28 02:49:30;;;;;;;1.38;0.60;;;9.60;65.00;;;;;;4940194;29;20534;-85
2023/04/28 02:52:02;;;;;;;0.93;0.63;;;9.60;65.00;;;;;;4921278;29;20053;-85
2023/04/28 02:54:32;;;;;;;1.85;0.77;;;9.60;65.10;;;;;;4952573;29;20058;-85
2023/04/28 02:57:03;;;;;;;1.70;0.80;;;9.60;65.10;;;;;;4921221;29;20075;-85
2023/04/28 02:59:30;;;;;;;2.72;0.98;;;9.60;65.10;;;;;;4942683;29;20047;-85
2023/04/28 03:01:58;;;;;;;2.25;0.85;;;9.60;65.10;;;;;;4927468;29;20071;-84
2023/04/28 03:04:26;;;;;;;1.83;0.90;;;9.60;65.10;;;;;;4931497;29;20048;-84
2023/04/28 03:06:58;;;;;;;2.75;0.98;;;9.60;65.20;;;;;;4942671;28;20043;-84
2023/04/28 03:09:33;;;;;;;1.00;0.50;;;9.60;65.30;;;;;;4923577;29;20107;-84
2023/04/28 03:12:16;;;;;;;1.92;0.88;;;9.50;65.20;;;;;;4921545;29;20138;-84
2023/04/28 03:14:45;;;;;;;1.33;0.63;;;9.50;65.30;;;;;;4935918;29;20418;-84
2023/04/28 03:17:16;;;;;;;0.90;0.40;;;9.50;65.40;;;;;;4915942;29;20138;-85
2023/04/28 03:19:45;;;;;;;1.70;0.75;;;9.50;65.40;;;;;;4920076;29;20094;-83
2023/04/28 03:22:12;;;;;;;2.28;0.93;;;9.50;65.40;;;;;;4929123;29;20078;-83
2023/04/28 03:24:45;;;;;;;1.45;0.60;;;9.50;65.40;;;;;;4945363;29;20044;-84
2023/04/28 03:27:13;;;;;;;1.70;0.70;;;9.50;65.50;;;;;;4945461;29;20051;-84
2023/04/28 03:29:51;;;;;;;2.65;0.70;;;9.50;65.50;;;;;;4922667;29;20048;-84
2023/04/28 03:32:18;;;;;;;3.38;0.90;;;9.50;65.50;;;;;;4969415;28;20043;-84
2023/04/28 03:34:50;;;;;;;1.17;0.63;;;9.50;65.60;;;;;;4919296;29;20052;-84
2023/04/28 03:37:18;;;;;;;2.42;0.70;;;9.50;65.60;;;;;;4933734;29;20063;-84
2023/04/28 03:39:47;;;;;;;1.60;0.75;;;9.50;65.70;;;;;;4921406;29;20052;-84
2023/04/28 03:42:17;;;;;;;2.92;0.93;;;9.50;65.70;;;;;;4933862;29;20056;-84
2023/04/28 03:45:12;;;;;;;2.72;1.25;;;9.50;65.80;;;;;;4922836;29;20047;-84
2023/04/28 03:47:49;;;;;;;1.85;0.70;;;9.50;65.80;;;;;;4919468;29;20074;-84
2023/04/28 03:50:17;;;;;;;1.52;0.80;;;9.50;65.80;;;;;;4919932;29;20074;-84
2023/04/28 03:52:45;;;;;;;1.35;0.80;;;9.50;65.80;;;;;;4935394;29;20103;-84
2023/04/28 03:55:15;;;;;;;1.55;0.70;;;9.50;65.80;;;;;;4935242;29;20047;-84
2023/04/28 03:57:47;;;;;;;1.30;0.60;;;9.50;65.90;;;;;;4931933;29;20130;-84
2023/04/28 04:00:22;;;;;;;2.80;1.05;;;9.50;65.90;;;;;;4929739;29;20039;-84
2023/04/28 04:02:54;;;;;;;2.00;0.68;;;9.50;65.90;;;;;;4916100;29;20134;-84
2023/04/28 04:05:25;;;;;;;1.50;0.60;;;9.50;66.00;;;;;;4920675;29;20048;-84
2023/04/28 04:07:55;;;;;;;;;;;9.50;66.00;;;;;;4935643;29;20374;-84
2023/04/28 04:10:22;;;;;;;1.95;0.73;;;9.50;66.10;;;;;;4916290;29;19927;-84
2023/04/28 04:12:50;;;;;;;1.75;0.63;;;9.50;66.20;;;;;;4918680;29;20048;-84
2023/04/28 04:15:18;;;;;;;1.42;0.70;;;9.50;66.20;;;;;;4932265;29;20500;-83
2023/04/28 04:17:48;;;;;;;1.58;0.68;;;9.50;66.30;;;;;;4934842;29;20075;-84
2023/04/28 04:20:18;;;;;;;1.80;0.77;;;9.50;66.30;;;;;;4919199;29;20122;-84
2023/04/28 04:22:47;;;;;;;2.00;0.75;;;9.50;66.40;;;;;;4935423;29;20412;-84
2023/04/28 04:25:14;;;;;;;1.50;0.63;;;9.50;66.40;;;;;;4903626;29;20481;-84
2023/04/28 04:27:46;;;;;;;1.33;0.75;;;9.50;66.50;;;;;;4920137;29;20099;-84
2023/04/28 04:30:14;;;;;;;1.80;0.77;;;9.50;66.60;;;;;;4937207;29;20059;-84
2023/04/28 04:32:47;;;;;;;1.63;0.90;;;9.50;66.60;;;;;;4919576;29;20044;-84
2023/04/28 04:35:18;;;;;;;1.65;0.60;;;9.60;66.80;;;;;;4950558;29;20047;-84
2023/04/28 04:37:50;;;;;;;2.17;0.85;;;9.60;66.80;;;;;;4903519;29;20075;-84
2023/04/28 04:40:17;;;;;;;3.15;0.75;;;9.60;66.90;;;;;;4910739;29;20082;-84
2023/04/28 04:42:49;;;;;;;2.10;0.93;;;9.60;67.00;;;;;;4930861;29;20056;-84
2023/04/28 04:45:18;;;;;;;1.50;0.70;;;9.60;67.00;;;;;;4945962;29;20047;-84
2023/04/28 04:47:46;;;;;;;2.05;0.80;;;9.60;67.10;;;;;;4927311;29;20041;-84
2023/04/28 04:50:17;;;;;;;2.33;1.00;;;9.60;67.10;;;;;;4903338;29;20420;-84
2023/04/28 04:52:49;;;;;;;2.00;0.60;;;9.60;67.20;;;;;;4937338;29;20051;-85
2023/04/28 04:55:22;;;;;;;1.85;0.80;;;9.60;67.30;;;;;;4934966;29;20051;-84
2023/04/28 04:58:00;;;;;;;2.33;0.85;;;9.60;67.40;;;;;;4919748;29;20504;-84
2023/04/28 05:00:28;;;;;;;2.65;0.70;;;9.60;67.60;;;;;;4950477;29;20405;-84
2023/04/28 05:02:59;;;;;;;2.15;0.60;;;9.60;67.50;;;;;;4929138;29;20044;-84
2023/04/28 05:05:37;;;;;;;3.22;1.00;;;9.60;67.50;;;;;;4928561;29;20052;-84
2023/04/28 05:08:12;;;;;;;1.38;0.70;;;9.70;68.30;;;;;;4932036;28;20044;-84
2023/04/28 05:10:42;;;;;;;1.55;0.73;;;9.70;67.70;;;;;;4939300;29;20058;-84
2023/04/28 05:13:16;;;;;;;2.22;1.00;;;9.70;67.80;;;;;;4931043;29;20501;-84
2023/04/28 05:15:44;;;;;;;1.65;0.63;;;9.70;67.80;;;;;;4934368;28;20057;-84
2023/04/28 05:18:29;;;;;;;2.40;0.95;;;9.80;67.90;;;;;;4945128;28;20051;-84
2023/04/28 05:21:05;;;;;;;1.85;0.60;;;9.80;67.80;;;;;;4915437;29;20052;-84
2023/04/28 05:23:32;;;;;;;2.10;0.52;;;9.90;67.90;;;;;;4913163;29;20044;-84
2023/04/28 05:26:03;;;;;;;2.58;1.05;;;9.90;67.90;;;;;;4915637;29;20505;-84
2023/04/28 05:28:31;;;;;;;3.28;1.10;;;10.00;68.00;;;;;;4916486;29;20048;-84
2023/04/28 05:31:00;;;;;;;2.72;0.88;;;10.00;68.10;;;;;;4949186;28;20059;-85
2023/04/28 05:33:30;;;;;;;2.30;0.82;;;10.00;68.20;;;;;;4935538;29;20407;-84
2023/04/28 05:35:58;;;;;;;2.53;1.23;;;10.10;68.30;;;;;;4930349;29;20050;-85
2023/04/28 05:38:26;;;;;;;2.38;1.10;;;10.10;68.40;;;;;;4942283;29;20114;-83
2023/04/28 05:40:58;;;;;;;2.25;1.00;;;10.10;68.40;;;;;;4930067;29;20529;-84
2023/04/28 05:43:30;;;;;;;2.33;0.95;;;10.20;68.60;;;;;;4931572;29;20063;-84
2023/04/28 05:45:59;;;;;;;2.75;1.20;;;10.20;68.80;;;;;;4925058;29;20568;-84
2023/04/28 05:48:30;;;;;;;3.22;1.45;;;10.20;68.80;;;;;;4940237;29;20143;-84
2023/04/28 05:51:00;;;;;;;2.65;1.10;;;10.10;68.90;;;;;;4924051;29;20055;-84
2023/04/28 05:53:32;;;;;;;3.22;1.05;;;10.20;69.20;;;;;;4922393;29;20059;-84
2023/04/28 05:56:00;;;;;;;2.03;1.00;;;10.20;69.30;;;;;;4935029;29;20052;-84
2023/04/28 05:58:31;;;;;;;2.63;1.20;;;10.20;69.30;;;;;;4910146;29;20432;-84
2023/04/28 06:00:59;;;;;;;2.40;1.10;;;10.20;69.50;;;;;;4920204;29;20415;-84
2023/04/28 06:03:26;;;;;;;2.70;1.20;;;10.20;69.60;;;;;;4921290;29;20076;-84
2023/04/28 06:05:56;;;;;;;3.20;0.98;;;10.30;69.80;;;;;;4923554;29;20469;-84
2023/04/28 06:08:25;;;;;;;1.73;0.88;;;10.30;69.80;;;;;;4921656;29;20134;-84
2023/04/28 06:10:52;;;;;;;2.58;1.30;;;10.30;69.80;;;;;;4923149;29;20048;-84
2023/04/28 06:13:20;;;;;;;2.92;1.33;;;10.30;70.00;;;;;;4916753;29;20130;-84
2023/04/28 06:15:49;;;;;;;3.55;1.20;;;10.30;70.10;;;;;;4918014;29;20071;-84
2023/04/28 06:18:17;;;;;;;2.50;1.15;;;10.30;70.30;;;;;;4926580;29;20039;-85
2023/04/28 06:20:44;;;;;;;3.20;1.05;;;10.30;70.50;;;;;;4943072;29;20048;-84
2023/04/28 06:23:11;;;;;;;2.55;1.20;;;10.20;70.70;;;;;;4907715;29;20505;-84
2023/04/28 06:25:43;;;;;;;3.88;1.17;;;10.20;71.80;;;;;;4925714;29;20560;-83
2023/04/28 06:28:12;;;;;;;1.83;0.98;;;10.10;71.50;;;;;;4931737;29;20047;-84
2023/04/28 06:30:44;;;;;;;3.22;1.70;;;10.10;71.80;;;;;;4923496;29;20051;-85
2023/04/28 06:33:12;;;;;;;2.95;1.48;;;10.10;72.10;;;;;;4942325;29;20059;-83
2023/04/28 06:35:41;;;;;;;2.50;1.30;;;10.20;72.30;;;;;;4915302;29;20058;-82
2023/04/28 06:38:08;;;;;;;2.83;1.33;;;10.20;72.50;;;;;;4936220;29;20051;-80
2023/04/28 06:40:36;;;;;;;3.45;1.33;;;10.30;72.80;;;;;;4920534;29;20064;-84
2023/04/28 06:43:05;;;;;;;5.90;1.95;;;10.30;73.00;;;;;;4928443;29;20067;-84
2023/04/28 06:45:37;;;;;;;2.40;1.10;;;10.40;73.30;;;;;;4936774;29;20044;-83
2023/04/28 06:48:05;;;;;;;4.35;1.50;;;10.40;73.40;;;;;;4951873;29;20500;-84
2023/04/28 06:50:37;;;;;;;3.60;1.45;;;10.40;73.60;;;;;;4932373;29;20441;-84
2023/04/28 06:53:06;;;;;;;4.63;1.80;;;10.50;73.70;;;;;;4927074;29;20104;-87
2023/04/28 06:55:37;;;;;;;4.15;1.90;;;10.60;74.00;;;;;;4941116;29;20074;-89
2023/04/28 06:58:08;;;;;;;5.35;1.85;;;10.60;74.20;;;;;;4936791;29;20052;-91
2023/04/28 07:00:38;;;;;;;6.95;2.30;;;10.70;74.40;;;;;;4920882;29;20151;-91
2023/04/28 07:03:08;;;;;;;4.38;2.80;;;10.80;74.50;;;;;;4913267;29;20044;-88
2023/04/28 07:05:38;;;;;;;4.60;2.00;;;10.90;74.60;;;;;;4926274;29;20048;-89
2023/04/28 07:08:06;;;;;;;3.72;1.70;;;11.10;74.70;;;;;;4930122;29;20473;-89
2023/04/28 07:10:34;;;;;;;3.28;1.50;;;11.30;74.70;;;;;;4946144;29;20051;-92
2023/04/28 07:13:02;;;;;;;4.03;1.75;;;11.40;74.70;;;;;;4936406;29;20481;-91
2023/04/28 07:15:35;;;;;;;4.53;1.85;;;11.60;74.70;;;;;;4920953;29;20051;-91
2023/04/28 07:18:02;;;;;;;5.18;2.95;;;11.60;74.70;;;;;;4920654;29;20058;-86
2023/04/28 07:20:29;;;;;;;3.55;1.80;;;11.70;74.90;;;;;;4929139;29;20123;-86
2023/04/28 07:23:00;;;;;;;3.47;1.73;;;11.70;75.00;;;;;;4916255;29;20082;-89
2023/04/28 07:25:30;;;;;;;3.15;1.77;;;11.80;75.30;;;;;;4917571;29;20059;-89
2023/04/28 07:28:08;;;;;;;4.10;1.40;;;11.80;75.40;;;;;;4916347;29;20417;-88
2023/04/28 07:30:35;;;;;;;3.95;1.85;;;11.90;75.60;;;;;;4938672;29;20052;-87
2023/04/28 07:33:03;;;;;;;3.50;1.77;;;11.90;75.70;;;;;;4910985;29;20048;-88
2023/04/28 07:35:34;;;;;;;4.50;1.60;;;11.90;75.90;;;;;;4917564;29;20044;-87
2023/04/28 07:38:01;;;;;;;4.53;1.95;;;11.90;76.20;;;;;;4933582;29;20095;-84
2023/04/28 07:40:29;;;;;;;5.28;2.38;;;11.90;76.30;;;;;;4940455;29;20412;-91
2023/04/28 07:43:01;;;;;;;4.88;2.55;;;11.90;77.00;;;;;;4937020;28;20098;-91
2023/04/28 07:45:34;;;;;;;4.35;1.90;;;12.10;76.60;;;;;;4938652;29;20043;-91
2023/04/28 07:48:07;;;;;;;5.13;2.60;;;12.10;76.70;;;;;;4935941;29;20134;-90
2023/04/28 07:50:34;;;;;;;3.85;1.98;;;12.10;76.90;;;;;;4920351;29;20169;-90
2023/04/28 07:53:01;;;;;;;4.15;1.83;;;12.20;77.00;;;;;;4911478;29;20066;-91
2023/04/28 07:55:31;;;;;;;9.70;2.20;;;12.30;77.00;;;;;;4946375;29;20048;-89
2023/04/28 07:58:08;;;;;;;5.20;2.53;;;12.40;77.00;;;;;;4920462;29;20045;-92
2023/04/28 08:00:50;;;;;;;4.35;2.35;;;12.50;77.20;;;;;;4943330;29;20055;-90
2023/04/28 08:03:45;;;;;;;4.32;2.33;;;12.40;77.20;;;;;;4905074;29;20071;-91
2023/04/28 08:06:19;;;;;;;4.47;2.05;;;12.50;77.50;;;;;;4944300;28;20054;-92
2023/04/28 08:08:48;;;;;;;4.80;2.67;;;12.50;77.70;;;;;;4934618;29;20477;-87
2023/04/28 08:11:15;;;;;;;4.90;2.50;;;12.50;77.80;;;;;;4932342;29;20056;-87
2023/04/28 08:13:42;;;;;;;5.15;2.45;;;12.50;78.00;;;;;;4903589;29;20484;-83
2023/04/28 08:16:10;;;;;;;4.70;2.45;;;12.50;78.20;;;;;;4927890;29;20048;-84
2023/04/28 08:18:38;;;;;;;4.90;2.78;;;12.50;78.30;;;;;;4931649;29;20055;-84
2023/04/28 08:21:06;;;;;;;3.80;2.10;;;12.60;78.50;;;;;;4919269;29;20404;-84
2023/04/28 08:23:33;;;;;;;4.85;2.30;;;12.60;78.60;;;;;;4936008;29;20587;-83
2023/04/28 08:26:00;;;;;;;4.45;2.60;;;12.70;78.70;;;;;;4908715;29;20497;-84
2023/04/28 08:28:28;;;;;;;4.70;2.60;;;12.90;78.70;;;;;;4928939;29;20052;-85
2023/04/28 08:30:55;;;;;;;5.45;2.65;;;13.00;78.50;;;;;;4924568;29;20638;-90
2023/04/28 08:33:24;;;;;;;3.67;2.03;;;13.20;78.50;;;;;;4919806;29;20508;-89
2023/04/28 08:35:52;;;;;;;5.05;3.08;;;13.30;78.40;;;;;;4935453;29;20048;-89
2023/04/28 08:38:24;;;;;;;8.52;4.15;;;13.50;78.30;;;;;;4934814;29;20509;-91
2023/04/28 08:40:51;;;;;;;4.40;2.78;;;13.60;78.30;;;;;;4919750;29;20126;-89
2023/04/28 08:43:20;;;;;;;5.65;3.22;;;13.70;78.30;;;;;;4935102;29;20044;-91
2023/04/28 08:45:53;;;;;;;5.07;2.88;;;13.70;78.50;;;;;;4926193;29;20139;-91
2023/04/28 08:48:39;;;;;;;5.35;3.40;;;13.70;78.60;;;;;;4922564;29;20560;-92
2023/04/28 08:51:27;;;;;;;7.65;3.33;;;13.80;78.80;;;;;;4930724;28;20044;-91
2023/04/28 08:54:17;;;;;;;6.95;3.55;;;13.70;78.90;;;;;;4961240;28;20054;-90
2023/04/28 08:56:59;;;;;;;4.30;2.38;;;13.70;79.00;;;;;;4920715;29;20056;-89
2023/04/28 08:59:31;;;;;;;3.95;2.45;;;13.80;79.20;;;;;;4916728;29;20056;-88
2023/04/28 09:02:14;;;;;;;6.30;2.38;;;13.80;79.20;;;;;;4938671;29;20404;-89
2023/04/28 09:04:46;;;;;;;4.38;2.50;;;13.90;79.30;;;;;;4926540;29;20147;-88
2023/04/28 09:07:17;;;;;;;8.25;3.17;;;13.90;79.40;;;;;;4930732;29;20104;-87
2023/04/28 09:09:47;;;;;;;6.15;3.38;;;13.80;79.50;;;;;;4951246;29;20457;-88
2023/04/28 09:12:14;;;;;;;5.03;2.80;;;13.70;79.90;;;;;;4922630;29;20463;-87
2023/04/28 09:14:41;;;;;;;4.63;3.00;;;13.70;80.20;;;;;;4943754;29;20050;-90
2023/04/28 09:17:11;;;;;;;5.22;2.45;;;13.70;80.30;;;;;;4950621;29;20048;-85
2023/04/28 09:19:42;;;;;;;5.90;2.60;;;13.70;80.40;;;;;;4938833;29;20047;-85
2023/04/28 09:22:09;;;;;;;5.13;2.88;;;13.70;80.40;;;;;;4941940;29;20055;-86
2023/04/28 09:24:55;;;;;;;4.47;2.42;;;13.70;80.40;;;;;;4927004;29;20083;-85
2023/04/28 09:27:26;;;;;;;5.32;3.05;;;13.70;80.60;;;;;;4922508;29;20052;-86
2023/04/28 09:29:54;;;;;;;4.93;2.92;;;13.70;81.40;;;;;;4938056;29;20051;-85
2023/04/28 09:32:22;;;;;;;7.13;2.65;;;13.80;80.80;;;;;;4953752;29;20102;-86
2023/04/28 09:35:01;;;;;;;5.40;3.05;;;13.90;80.90;;;;;;4921163;29;20111;-85
2023/04/28 09:37:31;;;;;;;4.80;2.63;;;13.90;81.00;;;;;;4928268;29;20080;-85
2023/04/28 09:40:07;;;;;;;5.00;2.60;;;13.90;81.00;;;;;;4947374;29;20048;-86
2023/04/28 09:42:37;;;;;;;5.18;2.88;;;13.90;81.10;;;;;;4934972;29;20134;-86
2023/04/28 09:45:10;;;;;;;5.20;2.72;;;13.90;81.30;;;;;;4953475;29;20086;-86
2023/04/28 09:47:39;;;;;;;4.38;2.70;;;13.90;81.30;;;;;;4936606;29;20051;-86
2023/04/28 09:50:16;;;;;;;4.60;2.63;;;14.00;81.30;;;;;;4937626;29;20066;-91
2023/04/28 09:53:07;;;;;;;4.60;2.55;;;14.00;81.40;;;;;;4944261;29;20047;-92
2023/04/28 09:55:46;;;;;;;4.70;2.20;;;14.10;81.50;;;;;;4924369;29;20048;-94
2023/04/28 10:02:16;;;;;;;;;;;;;;;;;;;;;
2023/04/28 10:05:18;;;;;;;4.30;2.30;;;13.90;81.90;;;;;;4945473;29;20067;-92
2023/04/28 10:12:44;;;;;;;5.57;2.40;;;13.90;82.40;;;;;;4938645;29;20423;-90
2023/04/28 10:15:57;;;;;;;19.80;3.20;;;13.80;82.50;;;;;;4939926;29;20051;-91
2023/04/28 10:18:57;;;;;;;4.53;2.00;;;13.80;82.70;;;;;;4874072;29;20056;-87
2023/04/28 10:21:27;;;;;;;3.95;2.15;;;13.80;82.80;;;;;;4930636;29;20040;-85
2023/04/28 10:24:28;;;;;;;5.05;2.67;;;13.80;82.90;;;;;;4922559;29;20052;-89
2023/04/28 10:27:08;;;;;;;5.35;2.42;;;13.90;83.20;;;;;;4911884;29;20056;-88
2023/04/28 10:29:36;;;;;;;4.32;2.58;;;13.80;83.20;;;;;;4945594;29;20047;-93
2023/04/28 10:32:15;;;;;;;5.15;2.63;;;13.80;83.30;;;;;;4964057;28;20403;-89
2023/04/28 10:34:42;;;;;;;4.63;2.65;;;13.80;84.10;;;;;;4939109;29;20449;-91
2023/04/28 10:37:18;;;;;;;3.38;2.33;;;13.90;83.60;;;;;;4933956;29;20050;-86
2023/04/28 10:40:22;;;;;;;3.15;1.85;;;13.90;83.70;;;;;;4911296;29;20413;-88
2023/04/28 10:42:59;;;;;;;6.22;2.08;;;14.00;83.80;;;;;;4932931;29;20464;-85
2023/04/28 10:45:51;;;;;;;4.32;2.53;;;14.00;83.90;;;;;;4920448;29;20074;-89
2023/04/28 10:48:50;;;;;;;3.20;1.88;;;14.10;84.00;;;;;;4951770;29;20127;-89
2023/04/28 10:51:36;;;;;;;3.95;2.28;;;14.10;84.00;;;;;;4936745;29;20052;-93
2023/04/28 10:54:13;;;;;;;4.10;2.35;;;14.10;84.20;;;;;;4921799;29;20054;-93
2023/04/28 10:57:40;;;;;;;4.47;2.75;;;14.10;84.30;;;;;;4922199;29;20048;-89
2023/04/28 11:00:34;;;;;;;4.03;2.65;;;14.10;84.60;;;;;;4929950;29;20075;-88
2023/04/28 11:03:50;;;;;;;5.00;3.17;;;14.10;84.90;;;;;;4919604;29;20051;-91
2023/04/28 11:07:13;;;;;;;5.97;4.32;;;14.00;85.30;;;;;;4955643;28;20464;-92
2023/04/28 11:09:49;;;;;;;5.65;4.07;;;14.00;86.00;;;;;;4932687;29;20048;-87
2023/04/28 11:13:11;;;;;;;6.38;4.78;;;13.90;86.20;;;;;;4920896;29;20072;-86
2023/04/28 11:15:39;;;;;;;7.22;4.75;;;14.00;86.80;;;;;;4919937;29;20048;-84
2023/04/28 11:18:20;;;;;;;5.63;3.85;;;13.90;87.10;;;;;;4936931;29;20086;-91
2023/04/28 11:20:58;;;;;;;4.78;3.47;;;13.90;87.40;;;;;;4952310;29;20048;-92
2023/04/28 11:23:28;;;;;;;6.47;5.13;;;13.90;87.60;;;;;;4951964;28;20058;-91
2023/04/28 11:26:04;;;;;;;5.32;3.80;;;14.00;88.40;;;;;;4920827;29;20044;-94
2023/04/28 11:29:05;;;;;;;4.85;3.72;;;14.10;88.20;;;;;;4951493;28;20047;-93
2023/04/28 11:31:32;;;;;;;4.80;3.47;;;14.20;88.60;;;;;;4920664;29;20044;-91
2023/04/28 11:34:38;;;;;;;4.90;3.20;;;14.20;88.80;;;;;;4934977;29;20051;-93
2023/04/28 11:37:19;;;;;;;5.47;4.03;;;14.20;89.20;;;;;;4936529;29;20456;-88
2023/04/28 11:39:54;;;;;;;4.60;3.25;;;14.20;89.70;;;;;;4924800;29;20442;-93
2023/04/28 11:42:35;;;;;;;;;;;;;;;;;;;;;
2023/04/28 11:45:45;;;;;;;5.65;3.15;;;14.10;90.00;;;;;;4913507;29;20076;-90
2023/04/28 11:49:03;;;;;;;3.85;3.13;;;14.00;90.40;;;;;;4917435;29;20416;-96
2023/04/28 11:56:29;;;;;;;3.75;2.50;;;13.90;90.80;;;;;;4918407;29;20039;-88
2023/04/28 12:00:20;;;;;;;4.50;2.80;;;13.90;90.80;;;;;;4869121;29;20063;-88
2023/04/28 12:07:49;;;;;;;7.00;4.22;;;14.10;91.10;;;;;;4839727;29;20040;-91
2023/04/28 12:11:11;;;;;;;9.75;5.68;;;14.30;91.20;;;;;;4860782;29;20048;-92
2023/04/28 12:14:06;;;;;;;6.75;4.70;;;14.20;91.60;;;;;;4863265;29;20045;-88
2023/04/28 12:16:42;;;;;;;9.45;6.28;;;14.20;91.70;;;;;;4888997;29;20047;-92
2023/04/28 12:19:11;;;;;;;8.68;5.65;;;14.10;92.00;;;;;;4951301;29;20047;-90
2023/04/28 12:22:05;;;;;;;8.60;4.97;;;14.00;92.10;;;;;;4932870;29;20052;-87
2023/04/28 12:24:36;;;;;;;7.80;5.38;;;14.00;92.20;;;;;;4933779;29;20107;-85
2023/04/28 12:27:19;;;;;;;9.80;6.18;;;14.00;92.40;;;;;;4950710;29;20098;-86
2023/04/28 12:29:47;;;;;;;7.55;5.22;;;13.90;92.40;;;;;;4951843;29;20050;-87
2023/04/28 12:36:22;;;;;;;9.20;5.95;;;13.80;92.80;;;;;;4838680;29;20097;-90
2023/04/28 12:44:14;;;;;;;10.25;6.43;;;13.70;93.50;;;;;;4845305;29;20129;-93
2023/04/28 13:00:25;;;;;;;;;;;;;;;;;;;;;
2023/04/28 13:03:49;;;;;;;9.43;6.57;;;13.90;94.30;;;;;;4825686;29;20523;-88
2023/04/28 13:07:58;;;;;;;;;;;;;;;;;;;;;
2023/04/28 13:19:30;;;;;;;9.75;5.57;;;13.70;95.40;;;;;;4789663;29;20549;-90
2023/04/28 13:22:05;;;;;;;7.60;4.80;;;13.70;95.40;;;;;;4807910;29;20051;-94
2023/04/28 13:24:36;;;;;;;8.70;5.70;;;13.80;95.40;;;;;;4819639;29;20547;-85
2023/04/28 13:27:08;;;;;;;8.48;4.78;;;13.80;95.70;;;;;;4922751;29;20043;-84
2023/04/28 13:29:36;;;;;;;8.18;5.05;;;13.90;95.30;;;;;;4938462;29;20050;-83
2023/04/28 13:32:07;;;;;;;9.35;4.65;;;14.10;95.30;;;;;;4937470;29;20408;-82
2023/04/28 13:34:36;;;;;;;6.97;4.30;;;14.20;95.20;;;;;;4948064;29;20098;-83
2023/04/28 13:37:03;;;;;;;7.68;4.57;;;14.30;95.10;;;;;;4937578;29;20051;-85
2023/04/28 13:39:31;;;;;;;7.55;5.03;;;14.40;95.10;;;;;;4934144;29;20552;-83
2023/04/28 13:41:58;;;;;;;7.38;4.07;;;14.40;95.10;;;;;;4933768;29;20047;-83
2023/04/28 13:44:25;;;;;;;7.68;4.93;;;14.50;95.10;;;;;;4912072;29;20488;-82
2023/04/28 13:46:56;;;;;;;8.57;4.03;;;14.40;95.10;;;;;;4935188;29;20127;-87
2023/04/28 13:49:27;;;;;;;7.82;4.43;;;14.40;95.10;;;;;;4919228;29;20051;-84
2023/04/28 13:52:02;;;;;;;7.03;4.20;;;14.40;95.30;;;;;;4936797;29;20044;-86
2023/04/28 13:54:32;;;;;;;7.47;4.57;;;14.30;95.40;;;;;;4938507;29;20054;-86
2023/04/28 14:01:38;;;;;;;6.95;4.50;;;14.30;95.60;;;;;;4880735;29;20517;-91
2023/04/28 14:04:12;;;;;;;6.95;4.55;;;14.40;95.60;;;;;;4894863;29;20044;-87
2023/04/28 14:06:41;;;;;;;8.40;5.30;;;14.50;95.60;;;;;;4938002;29;20056;-91
2023/04/28 14:09:56;;;;;;;6.60;4.60;;;14.50;95.60;;;;;;4954243;29;20416;-93
2023/04/28 14:22:09;;;;;;;6.30;3.95;;;14.40;95.60;;;;;;4803604;29;20054;-96
2023/04/28 14:24:37;;;;;;;6.93;4.25;;;14.50;95.60;;;;;;4828069;29;20572;-90
2023/04/28 14:27:33;;;;;;;5.68;3.22;;;14.50;95.70;;;;;;4818010;29;20606;-82
2023/04/28 14:30:00;;;;;;;6.38;3.85;;;14.50;95.70;;;;;;4846084;29;20509;-82
2023/04/28 14:32:30;;;;;;;5.40;3.15;;;14.50;95.70;;;;;;4872888;29;20045;-83
2023/04/28 14:34:58;;;;;;;5.60;3.45;;;14.40;95.70;;;;;;4865917;29;20064;-82
2023/04/28 14:37:26;;;;;;;4.97;3.13;;;14.40;95.80;;;;;;4884907;29;20147;-83